KFME/FME METAR and TAF weather

Enter ICAO airport designator
Station Type Date Time Source
KFME METAR 2019/12/07 14:54 UTC NOAA

KFME 071454Z AUTO 35003KT 10SM CLR 03/M05 A3044 RMK AO1


Station Type Date Time Source
KFME Decoded METAR 2019/12/07 14:54 UTC NOAA

Fort Meade / Tipton, MD, United States (KFME) 39-05N 076-46W
Dec 07, 2019 - 09:54 AM EST / 2019.12.07 1454 UTC
Wind: from the N (350 degrees) at 3 MPH (3 KT):0
Visibility: 10 mile(s):0
Sky conditions: clear
Temperature: 37 F (3 C)
Dew Point: 23 F (-5 C)
Relative Humidity: 55%
Pressure (altimeter): 30.44 in. Hg (1030 hPa)
ob: KFME 071454Z AUTO 35003KT 10SM CLR 03/M05 A3044 RMK AO1
cycle: 15

Station Type Date Time Source
KFME TAF UTC NOAA

Error!

Example: see airport list